Map

Track Data

SID SEASON NUMBER BASIN SUBBASIN NAME ISO_TIME NATURE LAT LON WMO_WIND WMO_PRES WMO_AGENCY TRACK_TYPE DIST2LAND LANDFALL IFLAG USA_AGENCY USA_ATCF_ID USA_LAT USA_LON USA_RECORD USA_STATUS USA_WIND USA_PRES USA_SSHS USA_R34_NE USA_R34_SE USA_R34_SW USA_R34_NW USA_R50_NE USA_R50_SE USA_R50_SW USA_R50_NW USA_R64_NE USA_R64_SE USA_R64_SW USA_R64_NW USA_POCI USA_ROCI USA_RMW USA_EYE TOKYO_LAT TOKYO_LON TOKYO_GRADE TOKYO_WIND TOKYO_PRES TOKYO_R50_DIR TOKYO_R50_LONG TOKYO_R50_SHORT TOKYO_R30_DIR TOKYO_R30_LONG TOKYO_R30_SHORT TOKYO_LAND CMA_LAT CMA_LON CMA_CAT CMA_WIND CMA_PRES HKO_LAT HKO_LON HKO_CAT HKO_WIND HKO_PRES NEWDELHI_LAT NEWDELHI_LON NEWDELHI_GRADE NEWDELHI_WIND NEWDELHI_PRES NEWDELHI_CI NEWDELHI_DP NEWDELHI_POCI REUNION_LAT REUNION_LON REUNION_TYPE REUNION_WIND REUNION_PRES REUNION_TNUM REUNION_CI REUNION_RMW REUNION_R34_NE REUNION_R34_SE REUNION_R34_SW REUNION_R34_NW REUNION_R50_NE REUNION_R50_SE REUNION_R50_SW REUNION_R50_NW REUNION_R64_NE REUNION_R64_SE REUNION_R64_SW REUNION_R64_NW BOM_LAT BOM_LON BOM_TYPE BOM_WIND BOM_PRES BOM_TNUM BOM_CI BOM_RMW BOM_R34_NE BOM_R34_SE BOM_R34_SW BOM_R34_NW BOM_R50_NE BOM_R50_SE BOM_R50_SW BOM_R50_NW BOM_R64_NE BOM_R64_SE BOM_R64_SW BOM_R64_NW BOM_ROCI BOM_POCI BOM_EYE BOM_POS_METHOD BOM_PRES_METHOD NADI_LAT NADI_LON NADI_CAT NADI_WIND NADI_PRES WELLINGTON_LAT WELLINGTON_LON WELLINGTON_WIND WELLINGTON_PRES DS824_LAT DS824_LON DS824_STAGE DS824_WIND DS824_PRES TD9636_LAT TD9636_LON TD9636_STAGE TD9636_WIND TD9636_PRES TD9635_LAT TD9635_LON TD9635_WIND TD9635_PRES TD9635_ROCI NEUMANN_LAT NEUMANN_LON NEUMANN_CLASS NEUMANN_WIND NEUMANN_PRES MLC_LAT MLC_LON MLC_CLASS MLC_WIND MLC_PRES USA_GUST BOM_GUST BOM_GUST_PER REUNION_GUST REUNION_GUST_PER USA_SEAHGT USA_SEARAD_NE USA_SEARAD_SE USA_SEARAD_SW USA_SEARAD_NW STORM_SPEED STORM_DIR
1972318N09067 1972 125 NI AS NOT_NAMED 1972-11-13 03:00:00 NR 9.10000 66.9000 main 957 952 __________O___ -1 9.10000 66.9000 1 7 344
1972318N09067 1972 125 NI AS NOT_NAMED 1972-11-13 06:00:00 TS 9.41876 66.8071 main 952 935 O________OP___ jtwc_io IO131972 9.40000 66.8000 -1 9.40000 66.8000 TC 25 9.43753 66.8143 1 7 347
1972318N09067 1972 125 NI AS NOT_NAMED 1972-11-13 09:00:00 TS 9.77001 66.7512 main 935 933 P________PP___ IO131972 9.77749 66.7650 -1 9.77749 66.7650 TC 25 9.76004 66.7327 1 7 350
1972318N09067 1972 125 NI AS NOT_NAMED 1972-11-13 12:00:00 TS 10.0810 66.6839 main 933 929 O________OP___ jtwc_io IO131972 10.1000 66.7000 -1 10.1000 66.7000 TC 25 10.0525 66.6599 1 6 345
1972318N09067 1972 125 NI AS NOT_NAMED 1972-11-13 15:00:00 TS 10.3200 66.5950 main 936 933 P________PO___ IO131972 10.3300 66.5925 -1 10.3300 66.5925 TC 25 10.3000 66.6000 1 5 339
1972318N09067 1972 125 NI AS NOT_NAMED 1972-11-13 18:00:00 TS 10.4982 66.5183 main 940 937 O________OP___ jtwc_io IO131972 10.5000 66.5000 -1 10.5000 66.5000 TC 25 10.4947 66.5548 1 3 344
1972318N09067 1972 125 NI AS NOT_NAMED 1972-11-13 21:00:00 TS 10.6475 66.5049 main 937 931 P________PP___ IO131972 10.6425 66.4999 -1 10.6425 66.4999 TC 25 10.6574 66.5148 1 3 354
1972318N09067 1972 125 NI AS NOT_NAMED 1972-11-14 00:00:00 TS 10.8055 66.4891 main 931 928 O________OP___ jtwc_io IO131972 10.8000 66.5000 -1 10.8000 66.5000 TC 25 10.8165 66.4673 1 4 347
1972318N09067 1972 125 NI AS NOT_NAMED 1972-11-14 03:00:00 TS 11.0233 66.4150 main 933 922 P________PO___ IO131972 11.0350 66.4225 -1 11.0350 66.4225 TC 25 11.0000 66.4000 1 5 338
1972318N09067 1972 125 NI AS NOT_NAMED 1972-11-14 06:00:00 TS 11.2848 66.2962 main 926 921 O________OP___ jtwc_io IO131972 11.3000 66.3000 -1 11.3000 66.3000 TC 25 11.2544 66.2886 1 6 334
1972318N09067 1972 125 NI AS NOT_NAMED 1972-11-14 09:00:00 TS 11.5450 66.1526 main 925 925 P________PP___ IO131972 11.5500 66.1500 -1 11.5500 66.1500 TC 25 11.5351 66.1577 1 6 332
1972318N09067 1972 125 NI AS NOT_NAMED 1972-11-14 12:00:00 TS 11.8077 66.0077 main 931 926 O________OP___ jtwc_io IO131972 11.8000 66.0000 -1 11.8000 66.0000 TC 25 11.8232 66.0229 1 6 334
1972318N09067 1972 125 NI AS NOT_NAMED 1972-11-14 15:00:00 TS 12.0667 65.8950 main 927 923 P________PO___ IO131972 12.0500 65.8925 -1 12.0500 65.8925 TC 25 12.1000 65.9000 1 6 338
1972318N09067 1972 125 NI AS NOT_NAMED 1972-11-14 18:00:00 TS 12.3172 65.7981 main 929 924 O________OP___ jtwc_io IO131972 12.3000 65.8000 -1 12.3000 65.8000 TC 25 12.3515 65.7944 1 5 339
1972318N09067 1972 125 NI AS NOT_NAMED 1972-11-14 21:00:00 TS 12.5675 65.6917 main 926 921 P________PP___ IO131972 12.5575 65.6850 -1 12.5575 65.6850 TC 25 12.5875 65.7050 1 5 339
1972318N09067 1972 125 NI AS NOT_NAMED 1972-11-15 00:00:00 TS 12.8016 65.6127 main 926 916 O________OP___ jtwc_io IO131972 12.8000 65.6000 -1 12.8000 65.6000 TC 25 12.8047 65.6381 1 5 348
1972318N09067 1972 125 NI AS NOT_NAMED 1972-11-15 03:00:00 TS 13.0100 65.5900 main 916 906 P________PO___ IO131972 13.0150 65.5850 -1 13.0150 65.5850 TC 25 13.0000 65.6000 1 4 360
1972318N09067 1972 125 NI AS NOT_NAMED 1972-11-15 06:00:00 TS 13.1932 65.5960 main 906 901 O________OP___ jtwc_io IO131972 13.2000 65.6000 -1 13.2000 65.6000 TC 25 13.1797 65.5880 1 3 0
1972318N09067 1972 125 NI AS NOT_NAMED 1972-11-15 09:00:00 TS 13.3558 65.5917 main 897 892 P________PP___ IO131972 13.3650 65.5850 -1 13.3650 65.5850 TC 25 13.3375 65.6049 1 3 0
1972318N09067 1972 125 NI AS NOT_NAMED 1972-11-15 12:00:00 TS 13.4922 65.6148 main 892 878 O________OP___ jtwc_io IO131972 13.5000 65.6000 -1 13.5000 65.6000 TC 25 13.4765 65.6443 1 3 21
1972318N09067 1972 125 NI AS NOT_NAMED 1972-11-15 15:00:00 TS 13.6000 65.6950 main 878 864 P________PO___ IO131972 13.6000 65.6925 -1 13.6000 65.6925 TC 25 13.6000 65.7000 1 3 36
1972318N09067 1972 125 NI AS NOT_NAMED 1972-11-15 18:00:00 TS 13.7197 65.7868 main 864 855 O________OP___ jtwc_io IO131972 13.7000 65.8000 -1 13.7000 65.8000 TC 25 13.7591 65.7605 1 3 27
1972318N09067 1972 125 NI AS NOT_NAMED 1972-11-15 21:00:00 TS 13.8808 65.8449 main 855 841 P________PP___ IO131972 13.8725 65.8500 -1 13.8725 65.8500 TC 25 13.8975 65.8348 1 3 22
1972318N09067 1972 125 NI AS NOT_NAMED 1972-11-16 00:00:00 TS 13.9957 65.9056 main 841 831 O________OP___ jtwc_io IO131972 14.0000 65.9000 -1 14.0000 65.9000 TC 25 13.9872 65.9167 1 2 50
1972318N09067 1972 125 NI AS NOT_NAMED 1972-11-16 03:00:00 TS 14.0017 66.0000 main 831 821 P________PO___ IO131972 14.0025 66.0000 -1 14.0025 66.0000 TC 25 14.0000 66.0000 1 2 118
1972318N09067 1972 125 NI AS NOT_NAMED 1972-11-16 06:00:00 TS 13.8959 66.0985 main 825 819 O________OP___ jtwc_io IO131972 13.9000 66.1000 -1 13.9000 66.1000 TC 25 13.8878 66.0955 1 3 151
1972318N09067 1972 125 NI AS NOT_NAMED 1972-11-16 09:00:00 TS 13.7108 66.1676 main 824 824 P________PP___ IO131972 13.7150 66.1575 -1 13.7150 66.1575 TC 25 13.7025 66.1878 1 4 163
1972318N09067 1972 125 NI AS NOT_NAMED 1972-11-16 12:00:00 TS 13.4970 66.2204 main 833 828 O________OP___ jtwc_io IO131972 13.5000 66.2000 -1 13.5000 66.2000 TC 25 13.4909 66.2611 1 4 165
1972318N09067 1972 125 NI AS NOT_NAMED 1972-11-16 15:00:00 TS 13.3183 66.2767 main 833 833 P________PO___ IO131972 13.3275 66.2650 -1 13.3275 66.2650 TC 25 13.3000 66.3000 1 3 165
1972318N09067 1972 125 NI AS NOT_NAMED 1972-11-16 18:00:00 TS 13.2014 66.3048 main 838 838 O________OP___ jtwc_io IO131972 13.2000 66.3000 -1 13.2000 66.3000 TC 25 13.2043 66.3144 1 2 0
1972318N09067 1972 125 NI AS NOT_NAMED 1972-11-16 21:00:00 TS 13.1399 66.2834 main 843 843 P________PP___ IO131972 13.1425 66.2800 -1 13.1425 66.2800 TC 25 13.1349 66.2901 1 1 222
1972318N09067 1972 125 NI AS NOT_NAMED 1972-11-17 00:00:00 TS 13.0910 66.2069 main 853 853 O________OP___ jtwc_io IO131972 13.1000 66.2000 -1 13.1000 66.2000 TC 25 13.0730 66.2207 1 2 236
1972318N09067 1972 125 NI AS NOT_NAMED 1972-11-17 03:00:00 TS 13.0100 66.0867 main 867 867 P________PO___ IO131972 13.0150 66.0800 -1 13.0150 66.0800 TC 25 13.0000 66.1000 1 4 236
1972318N09067 1972 125 NI AS NOT_NAMED 1972-11-17 06:00:00 TS 12.8897 65.9057 main 892 892 O________OP___ jtwc_io IO131972 12.9000 65.9000 -1 12.9000 65.9000 TC 25 12.8692 65.9170 1 5 236
1972318N09067 1972 125 NI AS NOT_NAMED 1972-11-17 09:00:00 TS 12.7376 65.6674 main 921 921 P________PP___ IO131972 12.7425 65.6574 -1 12.7425 65.6574 TC 25 12.7277 65.6872 1 6 239
1972318N09067 1972 125 NI AS NOT_NAMED 1972-11-17 12:00:00 TS 12.5991 65.4129 main 955 955 O________OP___ jtwc_io IO131972 12.6000 65.4000 -1 12.6000 65.4000 TC 25 12.5973 65.4388 1 5 245
1972318N09067 1972 125 NI AS NOT_NAMED 1972-11-17 15:00:00 TS 12.5183 65.1900 main 980 980 P________PO___ IO131972 12.5275 65.1850 -1 12.5275 65.1850 TC 25 12.5000 65.2000 1 4 254
1972318N09067 1972 125 NI AS NOT_NAMED 1972-11-17 18:00:00 TS 12.4880 65.0090 main 999 999 O________OP___ jtwc_io IO131972 12.5000 65.0000 -1 12.5000 65.0000 TC 25 12.4639 65.0270 1 3 264
1972318N09067 1972 125 NI AS NOT_NAMED 1972-11-17 21:00:00 TS 12.4824 64.8551 main 1009 1009 P________PP___ IO131972 12.4925 64.8500 -1 12.4925 64.8500 TC 25 12.4623 64.8652 1 3 271
1972318N09067 1972 125 NI AS NOT_NAMED 1972-11-18 00:00:00 TS 12.4932 64.6986 main 1028 1021 O________OP___ jtwc_io IO131972 12.5000 64.7000 -1 12.5000 64.7000 TC 25 12.4795 64.6957 1 3 273
1972318N09067 1972 125 NI AS NOT_NAMED 1972-11-18 03:00:00 TS 12.5000 64.5150 main 1021 1006 P________PO___ IO131972 12.5000 64.5225 -1 12.5000 64.5225 TC 25 12.5000 64.5000 1 4 271
1972318N09067 1972 125 NI AS NOT_NAMED 1972-11-18 06:00:00 TS 12.4986 64.2886 main 1006 984 O________OP___ jtwc_io IO131972 12.5000 64.3000 -1 12.5000 64.3000 TC 25 12.4959 64.2659 1 5 270
1972318N09067 1972 125 NI AS NOT_NAMED 1972-11-18 09:00:00 TS 12.4975 64.0108 main 984 963 P________PP___ IO131972 12.5000 64.0150 -1 12.5000 64.0150 TC 25 12.4924 64.0024 1 6 270
1972318N09067 1972 125 NI AS NOT_NAMED 1972-11-18 12:00:00 TS 12.4976 63.7043 main 963 942 O________OP___ jtwc_io IO131972 12.5000 63.7000 -1 12.5000 63.7000 TC 25 12.4927 63.7127 1 6 270
1972318N09067 1972 125 NI AS NOT_NAMED 1972-11-18 15:00:00 TS 12.4949 63.4100 main 942 922 P________PO___ IO131972 12.4924 63.4150 -1 12.4924 63.4150 TC 25 12.5000 63.4000 1 6 271
1972318N09067 1972 125 NI AS NOT_NAMED 1972-11-18 18:00:00 TS 12.5073 63.0878 main 922 890 O________OP___ jtwc_io IO131972 12.5000 63.1000 -1 12.5000 63.1000 TC 25 12.5219 63.0635 1 7 275
1972318N09067 1972 125 NI AS NOT_NAMED 1972-11-18 21:00:00 TS 12.5501 62.7026 main 887 846 P________PP___ IO131972 12.5501 62.7001 -1 12.5501 62.7001 TC 25 12.5501 62.7076 1 8 276
1972318N09067 1972 125 NI AS NOT_NAMED 1972-11-19 00:00:00 TS 12.5927 62.3160 main 846 814 O________OP___ jtwc_io IO131972 12.6000 62.3000 -1 12.6000 62.3000 TC 25 12.5782 62.3479 1 7 275
1972318N09067 1972 125 NI AS NOT_NAMED 1972-11-19 03:00:00 TS 12.6049 61.9900 main 814 781 P________PO___ IO131972 12.6074 61.9850 -1 12.6074 61.9850 TC 25 12.6000 62.0000 1 6 271
1972318N09067 1972 125 NI AS NOT_NAMED 1972-11-19 06:00:00 TS 12.6037 61.6966 main 781 749 O________OP___ jtwc_io IO131972 12.6000 61.7000 -1 12.6000 61.7000 TC 25 12.6110 61.6897 1 6 270
1972318N09067 1972 125 NI AS NOT_NAMED 1972-11-19 09:00:00 TS 12.6049 61.3975 main 749 716 P________PP___ IO131972 12.6000 61.4000 -1 12.6000 61.4000 TC 25 12.6147 61.3925 1 6 270
1972318N09067 1972 125 NI AS NOT_NAMED 1972-11-19 12:00:00 TS 12.6037 61.0997 main 716 684 O________OP___ jtwc_io IO131972 12.6000 61.1000 -1 12.6000 61.1000 TC 25 12.6110 61.0991 1 6 270
1972318N09067 1972 125 NI AS NOT_NAMED 1972-11-19 15:00:00 TS 12.6050 60.8050 main 684 651 P________PO___ IO131972 12.6074 60.8075 -1 12.6074 60.8075 TC 25 12.6000 60.8000 1 6 269
1972318N09067 1972 125 NI AS NOT_NAMED 1972-11-19 18:00:00 TS 12.5954 60.4927 main 651 618 O________OP___ jtwc_io IO131972 12.6000 60.5000 -1 12.6000 60.5000 TC 25 12.5862 60.4781 1 6 266
1972318N09067 1972 125 NI AS NOT_NAMED 1972-11-19 21:00:00 TS 12.5550 60.1500 main 608 575 P________PP___ IO131972 12.5500 60.1499 -1 12.5500 60.1499 TC 25 12.5649 60.1500 1 7 263
1972318N09067 1972 125 NI AS NOT_NAMED 1972-11-20 00:00:00 TS 12.5121 59.8073 main 575 543 O________OP___ jtwc_io IO131972 12.5000 59.8000 -1 12.5000 59.8000 TC 25 12.5362 59.8219 1 6 265
1972318N09067 1972 125 NI AS NOT_NAMED 1972-11-20 03:00:00 TS 12.5000 59.4950 main 543 510 P________PO___ IO131972 12.4999 59.4926 -1 12.4999 59.4926 TC 25 12.5000 59.5000 1 6 268
1972318N09067 1972 125 NI AS NOT_NAMED 1972-11-20 06:00:00 TS 12.4924 59.2044 main 510 477 O________OP___ jtwc_io IO131972 12.5000 59.2000 -1 12.5000 59.2000 TC 25 12.4772 59.2133 1 6 266
1972318N09067 1972 125 NI AS NOT_NAMED 1972-11-20 09:00:00 TS 12.4581 58.9151 main 477 445 P________PP___ IO131972 12.4649 58.9075 -1 12.4649 58.9075 TC 25 12.4445 58.9303 1 6 261
1972318N09067 1972 125 NI AS NOT_NAMED 1972-11-20 12:00:00 TS 12.3965 58.6107 main 445 414 O________OP___ jtwc_io IO131972 12.4000 58.6000 -1 12.4000 58.6000 TC 25 12.3896 58.6322 1 6 257
1972318N09067 1972 125 NI AS NOT_NAMED 1972-11-20 15:00:00 TS 12.3150 58.2767 main 414 372 P________PO___ IO131972 12.3225 58.2651 -1 12.3225 58.2651 TC 25 12.3000 58.3000 1 7 253
1972318N09067 1972 125 NI AS NOT_NAMED 1972-11-20 18:00:00 TS 12.1868 57.9082 main 372 332 O________OP___ jtwc_io IO131972 12.2000 57.9000 -1 12.2000 57.9000 TC 25 12.1671 57.9205 1 8 248
1972318N09067 1972 125 NI AS NOT_NAMED 1972-11-20 21:00:00 TS 12.0094 57.5049 main 332 296 P________PP___ IO131972 12.0176 57.5073 -1 12.0176 57.5073 TC 25 11.9983 57.5017 1 9 245
1972318N09067 1972 125 NI AS NOT_NAMED 1972-11-21 00:00:00 TS 11.8027 57.0786 main 296 254 O________OP___ jtwc_io IO131972 11.8000 57.1000 -1 11.8000 57.1000 TC 25 11.8054 57.0571 1 10 245
1972318N09067 1972 125 NI AS NOT_NAMED 1972-11-21 03:00:00 NR 11.6000 56.6000 main 254 __________O___ IO131972 -1 TC 11.6000 56.6000 1 10 247

About IBTrACS Database

This database is a web-friendly format of International Best Track Archive for Climate Stewardship (IBTrACS), a global best track data archive curated by NOAA dating back to 1842.

Updated: 2021-12-06